Observation data for Tulia on 02/24/2021      Previous  Date  Next       Current Mesonet Observations  Soil Data  Daily Summary Page  Observations in Plain Language
KTIS 240600Z 26017G22KT 12/M09 A2984 RMK A01 T01151088  RH  023%=      5-min Rain = 0
KTIS 240605Z 26016G21KT 12/M09 A2984 RMK A01 T01181088  RH  023%=      5-min Rain = 0
KTIS 240610Z 26015G20KT 12/M09 A2984 RMK A01 T01161088  RH  023%=      5-min Rain = 0
KTIS 240615Z 26018KT 12/M09 A2984 RMK A01 T01161087  RH  023%=      5-min Rain = 0
KTIS 240620Z 26018G24KT 12/M09 A2984 RMK A01 T01181087  RH  023%=      5-min Rain = 0
KTIS 240625Z 25019G24KT 12/M09 A2984 RMK A01 T01161087  RH  023%=      5-min Rain = 0
KTIS 240630Z 25019G24KT 11/M09 A2984 RMK A01 T01131086  RH  024%=      5-min Rain = 0
KTIS 240635Z 26019G25KT 11/M09 A2984 RMK A01 T01131086  RH  024%=      5-min Rain = 0
KTIS 240640Z 26017KT 11/M09 A2984 RMK A01 T01121086  RH  024%=      5-min Rain = 0
KTIS 240645Z 27015KT 11/M09 A2984 RMK A01 T01111086  RH  024%=      5-min Rain = 0
KTIS 240650Z 28016G21KT 11/M09 A2986 RMK A01 T01071085  RH  025%=      5-min Rain = 0
KTIS 240655Z 30022G29KT 10/M08 A2988 RMK A01 T01001082  RH  027%=      5-min Rain = 0
KTIS 240700Z 30019KT 10/M08 A2989 RMK A01 T01001078  RH  028%=      5-min Rain = 0
KTIS 240705Z 31021KT 10/M07 A2989 RMK A01 T01011070  RH  029%=      5-min Rain = 0
KTIS 240710Z 31021G27KT 10/M06 A299 RMK A01 T00991058  RH  033%=      5-min Rain = 0
KTIS 240715Z 32022G27KT 09/M05 A299 RMK A01 T00931053  RH  035%=      5-min Rain = 0
KTIS 240720Z 32022G28KT 09/M05 A299 RMK A01 T00921048  RH  037%=      5-min Rain = 0
KTIS 240725Z 32020G26KT 09/M05 A2991 RMK A01 T00881046  RH  038%=      5-min Rain = 0
KTIS 240730Z 33020G25KT 09/M04 A2992 RMK A01 T00861044  RH  040%=      5-min Rain = 0
KTIS 240735Z 33020G25KT 08/M04 A2992 RMK A01 T00841042  RH  041%=      5-min Rain = 0
KTIS 240740Z 34022G27KT 08/M04 A2993 RMK A01 T00841040  RH  042%=      5-min Rain = 0
KTIS 240745Z 34021G27KT 08/M04 A2993 RMK A01 T00811039  RH  043%=      5-min Rain = 0
KTIS 240750Z 35019KT 08/M04 A2994 RMK A01 T00791039  RH  043%=      5-min Rain = 0
KTIS 240755Z 34017KT 08/M04 A2994 RMK A01 T00761039  RH  044%=      5-min Rain = 0
KTIS 240800Z 34018KT 07/M04 A2995 RMK A01 T00741038  RH  045%=      5-min Rain = 0
KTIS 240805Z 34018KT 07/M04 A2996 RMK A01 T00721038  RH  046%=      5-min Rain = 0
KTIS 240810Z 34016KT 07/M04 A2997 RMK A01 T00701038  RH  046%=      5-min Rain = 0
KTIS 240815Z 34016KT 07/M04 A2997 RMK A01 T00681038  RH  047%=      5-min Rain = 0
KTIS 240820Z 35016KT 07/M04 A2997 RMK A01 T00671038  RH  047%=      5-min Rain = 0
KTIS 240825Z 35017KT 07/M04 A2998 RMK A01 T00661038  RH  047%=      5-min Rain = 0
KTIS 240830Z 35018KT 07/M04 A2998 RMK A01 T00661038  RH  048%=      5-min Rain = 0
KTIS 240835Z 34018KT 07/M04 A2998 RMK A01 T00651038  RH  048%=      5-min Rain = 0
KTIS 240840Z 35018KT 06/M04 A2998 RMK A01 T00631039  RH  048%=      5-min Rain = 0
KTIS 240845Z 35017G22KT 06/M04 A2998 RMK A01 T00621040  RH  048%=      5-min Rain = 0
KTIS 240850Z 35017KT 06/M04 A2999 RMK A01 T00591040  RH  049%=      5-min Rain = 0
KTIS 240855Z 34018KT 06/M04 A2999 RMK A01 T00581040  RH  049%=      5-min Rain = 0
KTIS 240900Z 34016G21KT 06/M04 A2999 RMK A01 T00551041  RH  050%=      5-min Rain = 0
KTIS 240905Z 35015KT 05/M04 A2999 RMK A01 T00541042  RH  050%=      5-min Rain = 0
KTIS 240910Z 35016KT 05/M04 A2999 RMK A01 T00541043  RH  050%=      5-min Rain = 0
KTIS 240915Z 35015KT 05/M04 A2999 RMK A01 T00531044  RH  050%=      5-min Rain = 0
KTIS 240920Z 35015KT 05/M04 A2999 RMK A01 T00511044  RH  050%=      5-min Rain = 0
KTIS 240925Z 35014KT 05/M05 A30 RMK A01 T00511045  RH  050%=      5-min Rain = 0
KTIS 240930Z 34014KT 05/M05 A30 RMK A01 T00471045  RH  051%=      5-min Rain = 0
KTIS 240935Z 35014KT 05/M05 A30 RMK A01 T00461046  RH  052%=      5-min Rain = 0
KTIS 240940Z 35014KT 05/M05 A3001 RMK A01 T00451047  RH  052%=      5-min Rain = 0
KTIS 240945Z 34014KT 04/M05 A3001 RMK A01 T00441047  RH  051%=      5-min Rain = 0
KTIS 240950Z 34012KT 04/M05 A3001 RMK A01 T00401048  RH  053%=      5-min Rain = 0
KTIS 240955Z 34012KT 04/M05 A3002 RMK A01 T00371049  RH  053%=      5-min Rain = 0
KTIS 241000Z 35012KT 03/M05 A3002 RMK A01 T00341050  RH  054%=      5-min Rain = 0
KTIS 241005Z 35014KT 04/M05 A3002 RMK A01 T00391050  RH  052%=      5-min Rain = 0
KTIS 241010Z 35012KT 04/M05 A3002 RMK A01 T00371051  RH  053%=      5-min Rain = 0
KTIS 241015Z 34014KT 04/M05 A3002 RMK A01 T00351051  RH  054%=      5-min Rain = 0
KTIS 241020Z 34012KT 03/M05 A3003 RMK A01 T00341051  RH  054%=      5-min Rain = 0
KTIS 241025Z 34011KT 03/M05 A3003 RMK A01 T00311051  RH  055%=      5-min Rain = 0
KTIS 241030Z 34011KT 03/M05 A3003 RMK A01 T00281052  RH  056%=      5-min Rain = 0
KTIS 241035Z 34013KT 03/M05 A3003 RMK A01 T00271051  RH  057%=      5-min Rain = 0
KTIS 241040Z 35012KT 03/M05 A3003 RMK A01 T00261051  RH  057%=      5-min Rain = 0
KTIS 241045Z 35012KT 03/M05 A3003 RMK A01 T00251051  RH  057%=      5-min Rain = 0
KTIS 241050Z 35013KT 03/M05 A3004 RMK A01 T00261051  RH  057%=      5-min Rain = 0
KTIS 241055Z 35013KT 03/M05 A3004 RMK A01 T00261051  RH  057%=      5-min Rain = 0
KTIS 241100Z 34013KT 02/M05 A3004 RMK A01 T00231051  RH  058%=      5-min Rain = 0
KTIS 241105Z 34012KT 02/M05 A3005 RMK A01 T00221051  RH  059%=      5-min Rain = 0
KTIS 241110Z 34010KT 02/M05 A3006 RMK A01 T00191051  RH  060%=      5-min Rain = 0
KTIS 241115Z 34011KT 02/M05 A3006 RMK A01 T00171051  RH  061%=      5-min Rain = 0
KTIS 241120Z 34011KT 02/M05 A3006 RMK A01 T00161050  RH  062%=      5-min Rain = 0
KTIS 241125Z 34011KT 02/M05 A3006 RMK A01 T00151050  RH  062%=      5-min Rain = 0
KTIS 241130Z 34012KT 02/M05 A3006 RMK A01 T00171049  RH  062%=      5-min Rain = 0
KTIS 241135Z 34012KT 02/M05 A3007 RMK A01 T00181049  RH  061%=      5-min Rain = 0
KTIS 241140Z 34011KT 02/M05 A3007 RMK A01 T00181048  RH  062%=      5-min Rain = 0
KTIS 241145Z 34010KT 02/M05 A3008 RMK A01 T00171048  RH  062%=      5-min Rain = 0
KTIS 241150Z 35009KT 02/M05 A3008 RMK A01 T00161049  RH  062%=      5-min Rain = 0
KTIS 241155Z 35009KT 02/M05 A3008 RMK A01 T00161049  RH  062%=      5-min Rain = 0
KTIS 241200Z 00008KT 01/M05 A3008 RMK A01 T00131050  RH  063%=      5-min Rain = 0
KTIS 241205Z 36009KT 01/M05 A3009 RMK A01 T00141050  RH  063%=      5-min Rain = 0
KTIS 241210Z 35010KT 01/M05 A3009 RMK A01 T00101051  RH  064%=      5-min Rain = 0
KTIS 241215Z 34011KT 01/M05 A3009 RMK A01 T00071051  RH  065%=      5-min Rain = 0
KTIS 241220Z 34009KT 00/M05 A3009 RMK A01 T00041052  RH  066%=      5-min Rain = 0
KTIS 241225Z 33009KT 00/M05 A301 RMK A01 T00021052  RH  067%=      5-min Rain = 0
KTIS 241230Z 34010KT 00/M05 A301 RMK A01 T00011053  RH  067%=      5-min Rain = 0
KTIS 241235Z 34010KT M00/M05 A301 RMK A01 T10021054  RH  068%=      5-min Rain = 0
KTIS 241240Z 34011KT M01/M05 A301 RMK A01 T10051054  RH  069%=      5-min Rain = 0
KTIS 241245Z 34012KT M00/M05 A301 RMK A01 T10021053  RH  069%=      5-min Rain = 0
KTIS 241250Z 34012KT M00/M06 A3011 RMK A01 T10041055  RH  069%=      5-min Rain = 0
KTIS 241255Z 34013KT M00/M05 A3011 RMK A01 T10021053  RH  069%=      5-min Rain = 0
KTIS 241300Z 34012KT M00/M05 A3011 RMK A01 T10031054  RH  069%=      5-min Rain = 0
KTIS 241305Z 34011KT M01/M06 A3011 RMK A01 T10071056  RH  070%=      5-min Rain = 0
KTIS 241310Z 34011KT M01/M06 A3011 RMK A01 T10091055  RH  071%=      5-min Rain = 0
KTIS 241315Z 34011KT M01/M05 A3011 RMK A01 T10071053  RH  071%=      5-min Rain = 0
KTIS 241320Z 34013KT M00/M05 A3012 RMK A01 T10031051  RH  070%=      5-min Rain = 0
KTIS 241325Z 34012KT M00/M05 A3012 RMK A01 T10011051  RH  069%=      5-min Rain = 0
KTIS 241330Z 34011KT M00/M05 A3012 RMK A01 T10031052  RH  070%=      5-min Rain = 0
KTIS 241335Z 33011KT M01/M05 A3013 RMK A01 T10051052  RH  071%=      5-min Rain = 0
KTIS 241340Z 34012KT M00/M05 A3013 RMK A01 T10031051  RH  070%=      5-min Rain = 0
KTIS 241345Z 32010KT M00/M05 A3014 RMK A01 T10011052  RH  069%=      5-min Rain = 0
KTIS 241350Z 33011KT M00/M05 A3015 RMK A01 T10031052  RH  070%=      5-min Rain = 0
KTIS 241355Z 33013KT 00/05 A3015 RMK A01 T00-00-51  RH  069%=      5-min Rain = 0
KTIS 241400Z 34014KT 00/M05 A3015 RMK A01 T00041051  RH  067%=      5-min Rain = 0
KTIS 241405Z 34014KT 01/M05 A3015 RMK A01 T00071051  RH  065%=      5-min Rain = 0
KTIS 241410Z 33013KT 01/M05 A3016 RMK A01 T00101051  RH  064%=      5-min Rain = 0
KTIS 241415Z 34013KT 01/M05 A3016 RMK A01 T00111052  RH  063%=      5-min Rain = 0
KTIS 241420Z 35015KT 01/M05 A3016 RMK A01 T00131052  RH  062%=      5-min Rain = 0
KTIS 241425Z 35015KT 02/M05 A3016 RMK A01 T00161052  RH  061%=      5-min Rain = 0
KTIS 241430Z 35016KT 02/M05 A3017 RMK A01 T00181052  RH  060%=      5-min Rain = 0
KTIS 241435Z 35015KT 02/M05 A3018 RMK A01 T00201051  RH  059%=      5-min Rain = 0
KTIS 241440Z 35016KT 02/M05 A3018 RMK A01 T00221052  RH  058%=      5-min Rain = 0
KTIS 241445Z 36014G19KT 03/M05 A3018 RMK A01 T00251051  RH  057%=      5-min Rain = 0
KTIS 241450Z 00015G20KT 03/M05 A3019 RMK A01 T00271052  RH  056%=      5-min Rain = 0
KTIS 241455Z 00016KT 03/M05 A3019 RMK A01 T00291053  RH  055%=      5-min Rain = 0
KTIS 241500Z 00017G22KT 03/M05 A3019 RMK A01 T00321052  RH  054%=      5-min Rain = 0
KTIS 241505Z 00017G22KT 04/M05 A3019 RMK A01 T00351053  RH  053%=      5-min Rain = 0
KTIS 241510Z 35018KT 04/M05 A302 RMK A01 T00371053  RH  052%=      5-min Rain = 0
KTIS 241515Z 00018KT 04/M05 A302 RMK A01 T00381054  RH  051%=      5-min Rain = 0
KTIS 241520Z 36019KT 04/M05 A302 RMK A01 T00401054  RH  051%=      5-min Rain = 0
KTIS 241525Z 36020KT 04/M05 A302 RMK A01 T00431053  RH  050%=      5-min Rain = 0
KTIS 241530Z 36020KT 04/M05 A302 RMK A01 T00431054  RH  050%=      5-min Rain = 0
KTIS 241535Z 36021KT 05/M05 A302 RMK A01 T00451054  RH  049%=      5-min Rain = 0
KTIS 241540Z 36019KT 05/M05 A302 RMK A01 T00461053  RH  049%=      5-min Rain = 0
KTIS 241545Z 36019KT 05/M05 A302 RMK A01 T00481053  RH  048%=      5-min Rain = 0
KTIS 241550Z 00019KT 05/M05 A302 RMK A01 T00491053  RH  048%=      5-min Rain = 0
KTIS 241555Z 00018G23KT 05/M05 A302 RMK A01 T00491053  RH  048%=      5-min Rain = 0
KTIS 241600Z 36020KT 05/M05 A302 RMK A01 T00511052  RH  047%=      5-min Rain = 0
KTIS 241605Z 36020KT 05/M05 A302 RMK A01 T00531052  RH  047%=      5-min Rain = 0
KTIS 241610Z 36020KT 06/M05 A302 RMK A01 T00551052  RH  046%=      5-min Rain = 0
KTIS 241615Z 36019G24KT 06/M05 A302 RMK A01 T00561051  RH  046%=      5-min Rain = 0
KTIS 241620Z 36019KT 06/M05 A302 RMK A01 T00591050  RH  046%=      5-min Rain = 0
KTIS 241625Z 00019KT 06/M05 A302 RMK A01 T00611049  RH  045%=      5-min Rain = 0
KTIS 241630Z 36018KT 06/M05 A302 RMK A01 T00611050  RH  045%=      5-min Rain = 0
KTIS 241635Z 00016G21KT 06/M05 A302 RMK A01 T00611050  RH  045%=      5-min Rain = 0
KTIS 241640Z 01014KT 07/M05 A302 RMK A01 T00661047  RH  044%=      5-min Rain = 0
KTIS 241645Z 01014G19KT 07/M05 A302 RMK A01 T00661048  RH  044%=      5-min Rain = 0
KTIS 241650Z 01015KT 07/M05 A302 RMK A01 T00671049  RH  044%=      5-min Rain = 0
KTIS 241655Z 01014KT 07/M05 A302 RMK A01 T00691048  RH  043%=      5-min Rain = 0
KTIS 241700Z 01014G19KT 07/M05 A3019 RMK A01 T00721046  RH  043%=      5-min Rain = 0
KTIS 241705Z 01013G19KT 07/M05 A3019 RMK A01 T00731048  RH  042%=      5-min Rain = 0
KTIS 241710Z 01014G19KT 07/M05 A3019 RMK A01 T00731048  RH  042%=      5-min Rain = 0
KTIS 241715Z 01013G18KT 08/M05 A3019 RMK A01 T00771047  RH  041%=      5-min Rain = 0
KTIS 241720Z 01014G20KT 08/M05 A3019 RMK A01 T00751050  RH  041%=      5-min Rain = 0
KTIS 241725Z 01014KT 08/M05 A3019 RMK A01 T00791049  RH  040%=      5-min Rain = 0
KTIS 241730Z 02013G19KT 08/M05 A3019 RMK A01 T00811049  RH  039%=      5-min Rain = 0
KTIS 241735Z 02012G17KT 08/M05 A3019 RMK A01 T00831049  RH  039%=      5-min Rain = 0
KTIS 241740Z 02013G19KT 08/M05 A3019 RMK A01 T00821052  RH  038%=      5-min Rain = 0
KTIS 241745Z 02012G17KT 09/M05 A3019 RMK A01 T00851051  RH  038%=      5-min Rain = 0
KTIS 241750Z 02011G17KT 09/M05 A302 RMK A01 T00861053  RH  037%=      5-min Rain = 0
KTIS 241755Z 03012KT 09/M05 A302 RMK A01 T00881051  RH  037%=      5-min Rain = 0
KTIS 241800Z 03011G17KT 09/M05 A302 RMK A01 T00921052  RH  036%=      5-min Rain = 0
KTIS 241805Z 04009G15KT 09/M05 A302 RMK A01 T00941049  RH  036%=      5-min Rain = 0
KTIS 241810Z 03012KT 10/M05 A3019 RMK A01 T00991053  RH  034%=      5-min Rain = 0
KTIS 241815Z 04010G16KT 10/M06 A3019 RMK A01 T00981062  RH  032%=      5-min Rain = 0
KTIS 241820Z 03012G19KT 10/M06 A3019 RMK A01 T01011060  RH  032%=      5-min Rain = 0
KTIS 241825Z 04012G17KT 10/M06 A3019 RMK A01 T00991061  RH  032%=      5-min Rain = 0
KTIS 241830Z 04010KT 10/M06 A3018 RMK A01 T01021062  RH  031%=      5-min Rain = 0
KTIS 241835Z 04011G16KT 10/M06 A3018 RMK A01 T01011061  RH  031%=      5-min Rain = 0
KTIS 241840Z 03011G18KT 10/M06 A3017 RMK A01 T01041062  RH  031%=      5-min Rain = 0
KTIS 241845Z 04012G17KT 10/M06 A3017 RMK A01 T01041062  RH  030%=      5-min Rain = 0
KTIS 241850Z 04013G18KT 11/M06 A3017 RMK A01 T01061064  RH  030%=      5-min Rain = 0
KTIS 241855Z 05012G18KT 11/M08 A3017 RMK A01 T01081076  RH  027%=      5-min Rain = 0
KTIS 241900Z 04012G21KT 11/M07 A3017 RMK A01 T01121067  RH  028%=      5-min Rain = 0
KTIS 241905Z 05013G18KT 11/M08 A3017 RMK A01 T01111081  RH  025%=      5-min Rain = 0
KTIS 241910Z 06011KT 11/M08 A3016 RMK A01 T01121075  RH  026%=      5-min Rain = 0
KTIS 241915Z 05011G17KT 11/M07 A3016 RMK A01 T01121072  RH  027%=      5-min Rain = 0
KTIS 241920Z 04012G18KT 11/M08 A3016 RMK A01 T01141081  RH  025%=      5-min Rain = 0
KTIS 241925Z 05010KT 12/M08 A3016 RMK A01 T01151077  RH  025%=      5-min Rain = 0
KTIS 241930Z 05012G19KT 12/M08 A3016 RMK A01 T01161078  RH  025%=      5-min Rain = 0
KTIS 241935Z 05011G17KT 12/M08 A3016 RMK A01 T01171082  RH  024%=      5-min Rain = 0
KTIS 241940Z 05011KT 12/M08 A3016 RMK A01 T01181077  RH  025%=      5-min Rain = 0
KTIS 241945Z 07013G20KT 12/M09 A3015 RMK A01 T01231091  RH  022%=      5-min Rain = 0
KTIS 241950Z 07014KT 12/M09 A3015 RMK A01 T01211093  RH  021%=      5-min Rain = 0
KTIS 241955Z 07011G17KT 12/M09 A3015 RMK A01 T01191089  RH  022%=      5-min Rain = 0
KTIS 242000Z 08012G17KT 12/M09 A3014 RMK A01 T01201089  RH  022%=      5-min Rain = 0
KTIS 242005Z 07010G15KT 12/M09 A3014 RMK A01 T01201087  RH  022%=      5-min Rain = 0
KTIS 242010Z 07012G18KT 12/M08 A3014 RMK A01 T01221083  RH  023%=      5-min Rain = 0
KTIS 242015Z 07009G15KT 12/M08 A3014 RMK A01 T01201084  RH  023%=      5-min Rain = 0
KTIS 242020Z 07013G19KT 12/M09 A3013 RMK A01 T01241088  RH  022%=      5-min Rain = 0
KTIS 242025Z 07010G17KT 12/M09 A3013 RMK A01 T01221087  RH  022%=      5-min Rain = 0
KTIS 242030Z 07012G18KT 12/M08 A3013 RMK A01 T01231083  RH  023%=      5-min Rain = 0
KTIS 242035Z 06009G14KT 12/M09 A3013 RMK A01 T01231085  RH  022%=      5-min Rain = 0
KTIS 242040Z 06011G18KT 12/M08 A3013 RMK A01 T01231083  RH  023%=      5-min Rain = 0
KTIS 242045Z 06013G18KT 13/M08 A3012 RMK A01 T01271083  RH  022%=      5-min Rain = 0
KTIS 242050Z 06010G16KT 13/M09 A3012 RMK A01 T01251090  RH  021%=      5-min Rain = 0
KTIS 242055Z 06010G15KT 13/M09 A3012 RMK A01 T01271089  RH  021%=      5-min Rain = 0
KTIS 242100Z 07012KT 13/M09 A3012 RMK A01 T01281091  RH  021%=      5-min Rain = 0
KTIS 242105Z 07012KT 13/M09 A3012 RMK A01 T01291090  RH  021%=      5-min Rain = 0
KTIS 242110Z 07010KT 13/M09 A3013 RMK A01 T01261092  RH  021%=      5-min Rain = 0
KTIS 242115Z 08012KT 13/M09 A3013 RMK A01 T01281091  RH  021%=      5-min Rain = 0
KTIS 242120Z 09011G16KT 13/M09 A3012 RMK A01 T01271088  RH  022%=      5-min Rain = 0
KTIS 242125Z 09010G15KT 13/M09 A3012 RMK A01 T01261092  RH  021%=      5-min Rain = 0
KTIS 242130Z 09008G14KT 13/M09 A3012 RMK A01 T01271092  RH  021%=      5-min Rain = 0
KTIS 242135Z 10008G15KT 13/M09 A3011 RMK A01 T01271092  RH  021%=      5-min Rain = 0
KTIS 242140Z 08010G15KT 13/M09 A3011 RMK A01 T01271093  RH  021%=      5-min Rain = 0
KTIS 242145Z 07011KT 13/M09 A3011 RMK A01 T01311090  RH  021%=      5-min Rain = 0
KTIS 242150Z 07010G17KT 13/M09 A3011 RMK A01 T01291091  RH  021%=      5-min Rain = 0
KTIS 242155Z 06010G16KT 13/M09 A3011 RMK A01 T01291092  RH  020%=      5-min Rain = 0
KTIS 242200Z 07009G14KT 13/M09 A3011 RMK A01 T01261094  RH  021%=      5-min Rain = 0
KTIS 242205Z 10011KT 13/M09 A3011 RMK A01 T01281088  RH  021%=      5-min Rain = 0
KTIS 242210Z 08012KT 13/M09 A3011 RMK A01 T01291092  RH  020%=      5-min Rain = 0
KTIS 242215Z 07009KT 13/M09 A3011 RMK A01 T01281094  RH  020%=      5-min Rain = 0
KTIS 242220Z 08013KT 13/M09 A3011 RMK A01 T01291091  RH  021%=      5-min Rain = 0
KTIS 242225Z 10011G16KT 13/M09 A3011 RMK A01 T01271092  RH  021%=      5-min Rain = 0
KTIS 242230Z 10011KT 13/M09 A3011 RMK A01 T01271088  RH  021%=      5-min Rain = 0
KTIS 242235Z 08010G17KT 13/M09 A3011 RMK A01 T01281093  RH  021%=      5-min Rain = 0
KTIS 242240Z 08010G15KT 13/M09 A3011 RMK A01 T01271094  RH  020%=      5-min Rain = 0
KTIS 242245Z 09011KT 13/M09 A3011 RMK A01 T01261092  RH  021%=      5-min Rain = 0
KTIS 242250Z 10010G15KT 13/M09 A3011 RMK A01 T01261092  RH  021%=      5-min Rain = 0
KTIS 242255Z 07011KT 13/M10 A3011 RMK A01 T01261096  RH  020%=      5-min Rain = 0
KTIS 242300Z 07009KT 13/M10 A3011 RMK A01 T01251097  RH  020%=      5-min Rain = 0
KTIS 242305Z 09010KT 13/M09 A3011 RMK A01 T01251093  RH  021%=      5-min Rain = 0
KTIS 242310Z 09008G13KT 13/M09 A3011 RMK A01 T01261092  RH  021%=      5-min Rain = 0
KTIS 242315Z 10010KT 12/M09 A3011 RMK A01 T01231093  RH  021%=      5-min Rain = 0
KTIS 242320Z 08010KT 12/M09 A3011 RMK A01 T01221093  RH  021%=      5-min Rain = 0
KTIS 242325Z 07009KT 12/M09 A3011 RMK A01 T01221093  RH  021%=      5-min Rain = 0
KTIS 242330Z 09010KT 12/M09 A3011 RMK A01 T01211089  RH  022%=      5-min Rain = 0
KTIS 242335Z 09009KT 12/M09 A3011 RMK A01 T01211088  RH  022%=      5-min Rain = 0
KTIS 242340Z 09011G17KT 12/M09 A3011 RMK A01 T01201087  RH  023%=      5-min Rain = 0
KTIS 242345Z 10011KT 12/M09 A3011 RMK A01 T01181085  RH  023%=      5-min Rain = 0
KTIS 242350Z 10009KT 12/M09 A3012 RMK A01 T01171085  RH  023%=      5-min Rain = 0
KTIS 242355Z 10009KT 12/M08 A3012 RMK A01 T01161084  RH  024%=      5-min Rain = 0
KTIS 250000Z 09009KT 12/M09 A3012 RMK A01 T01151087  RH  023%=      5-min Rain = 0
KTIS 250005Z 10009KT 11/M08 A3012 RMK A01 T01131082  RH  025%=      5-min Rain = 0
KTIS 250010Z 10009KT 11/M08 A3012 RMK A01 T01101080  RH  026%=      5-min Rain = 0
KTIS 250015Z 09008KT 11/M08 A3012 RMK A01 T01071080  RH  026%=      5-min Rain = 0
KTIS 250020Z 08008KT 11/M08 A3013 RMK A01 T01051081  RH  026%=      5-min Rain = 0
KTIS 250025Z 08008KT 10/M08 A3013 RMK A01 T01001082  RH  027%=      5-min Rain = 0
KTIS 250030Z 08008KT 10/M08 A3013 RMK A01 T00961083  RH  027%=      5-min Rain = 0
KTIS 250035Z 08008KT 09/M09 A3014 RMK A01 T00891085  RH  028%=      5-min Rain = 0
KTIS 250040Z 08008KT 08/M08 A3014 RMK A01 T00821084  RH  030%=      5-min Rain = 0
KTIS 250045Z 08008KT 08/M08 A3014 RMK A01 T00761083  RH  031%=      5-min Rain = 0
KTIS 250050Z 07009KT 07/M08 A3015 RMK A01 T00731084  RH  032%=      5-min Rain = 0
KTIS 250055Z 08008KT 07/M08 A3015 RMK A01 T00701083  RH  033%=      5-min Rain = 0
KTIS 250100Z 07008KT 07/M08 A3015 RMK A01 T00651084  RH  034%=      5-min Rain = 0
KTIS 250105Z 07008KT 06/M09 A3016 RMK A01 T00591085  RH  035%=      5-min Rain = 0
KTIS 250110Z 07008KT 06/M09 A3016 RMK A01 T00561085  RH  035%=      5-min Rain = 0
KTIS 250115Z 07008KT 05/M09 A3016 RMK A01 T00541085  RH  036%=      5-min Rain = 0
KTIS 250120Z 07008KT 05/M09 A3016 RMK A01 T00521086  RH  036%=      5-min Rain = 0
KTIS 250125Z 07008KT 05/M09 A3017 RMK A01 T00481088  RH  037%=      5-min Rain = 0
KTIS 250130Z 07007KT 05/M09 A3017 RMK A01 T00451088  RH  037%=      5-min Rain = 0
KTIS 250135Z 07007KT 04/M09 A3017 RMK A01 T00421085  RH  039%=      5-min Rain = 0
KTIS 250140Z 07007KT 04/M08 A3017 RMK A01 T00401082  RH  040%=      5-min Rain = 0
KTIS 250145Z 07007KT 04/M08 A3017 RMK A01 T00371083  RH  041%=      5-min Rain = 0
KTIS 250150Z 07007KT 04/M08 A3017 RMK A01 T00351081  RH  042%=      5-min Rain = 0
KTIS 250155Z 07007KT 03/M08 A3017 RMK A01 T00331082  RH  043%=      5-min Rain = 0
KTIS 250200Z 07008KT 03/M08 A3017 RMK A01 T00301082  RH  043%=      5-min Rain = 0
KTIS 250205Z 07009KT 03/M08 A3017 RMK A01 T00301082  RH  044%=      5-min Rain = 0
KTIS 250210Z 07009KT 03/M08 A3017 RMK A01 T00301082  RH  044%=      5-min Rain = 0
KTIS 250215Z 07008KT 03/M08 A3018 RMK A01 T00291082  RH  044%=      5-min Rain = 0
KTIS 250220Z 07007KT 03/M08 A3018 RMK A01 T00271083  RH  044%=      5-min Rain = 0
KTIS 250225Z 07007KT 02/M08 A3019 RMK A01 T00241083  RH  045%=      5-min Rain = 0
KTIS 250230Z 07007KT 03/M08 A3019 RMK A01 T00251082  RH  045%=      5-min Rain = 0
KTIS 250235Z 08008KT 03/M08 A3018 RMK A01 T00261082  RH  045%=      5-min Rain = 0
KTIS 250240Z 08008KT 02/M08 A3018 RMK A01 T00221082  RH  046%=      5-min Rain = 0
KTIS 250245Z 08008KT 02/M08 A3018 RMK A01 T00221081  RH  046%=      5-min Rain = 0
KTIS 250250Z 08007KT 02/M08 A3018 RMK A01 T00191081  RH  047%=      5-min Rain = 0
KTIS 250255Z 07007KT 02/M08 A3018 RMK A01 T00151082  RH  048%=      5-min Rain = 0
KTIS 250300Z 08008KT 02/M08 A3019 RMK A01 T00151081  RH  049%=      5-min Rain = 0
KTIS 250305Z 08007KT 02/M08 A3018 RMK A01 T00171080  RH  048%=      5-min Rain = 0
KTIS 250310Z 09007KT 02/M08 A3019 RMK A01 T00181077  RH  049%=      5-min Rain = 0
KTIS 250315Z 08007KT 02/M08 A3019 RMK A01 T00211078  RH  048%=      5-min Rain = 0
KTIS 250320Z 08007KT 02/M08 A3019 RMK A01 T00201080  RH  048%=      5-min Rain = 0
KTIS 250325Z 08007KT 02/M08 A3019 RMK A01 T00181080  RH  048%=      5-min Rain = 0
KTIS 250330Z 08007KT 02/M08 A3019 RMK A01 T00171079  RH  049%=      5-min Rain = 0
KTIS 250335Z 08006KT 02/M08 A3019 RMK A01 T00161079  RH  049%=      5-min Rain = 0
KTIS 250340Z 09006KT 01/M08 A3019 RMK A01 T00141078  RH  050%=      5-min Rain = 0
KTIS 250345Z 09006KT 01/M08 A3019 RMK A01 T00141077  RH  051%=      5-min Rain = 0
KTIS 250350Z 08006KT 01/M08 A3019 RMK A01 T00111080  RH  051%=      5-min Rain = 0
KTIS 250355Z 08007KT 01/M08 A3019 RMK A01 T00101079  RH  051%=      5-min Rain = 0
KTIS 250400Z 08007KT 01/M08 A3019 RMK A01 T00121078  RH  051%=      5-min Rain = 0
KTIS 250405Z 08006KT 01/M08 A302 RMK A01 T00121077  RH  051%=      5-min Rain = 0
KTIS 250410Z 09006KT 01/M08 A302 RMK A01 T00091076  RH  053%=      5-min Rain = 0
KTIS 250415Z 09007KT 01/M08 A302 RMK A01 T00081076  RH  053%=      5-min Rain = 0
KTIS 250420Z 09007KT 01/M08 A3019 RMK A01 T00071078  RH  053%=      5-min Rain = 0
KTIS 250425Z 09007KT 01/M08 A3019 RMK A01 T00091077  RH  052%=      5-min Rain = 0
KTIS 250430Z 08006KT 01/M08 A302 RMK A01 T00101079  RH  051%=      5-min Rain = 0
KTIS 250435Z 08007KT 01/M08 A302 RMK A01 T00061080  RH  052%=      5-min Rain = 0
KTIS 250440Z 09008KT 01/M08 A302 RMK A01 T00081077  RH  053%=      5-min Rain = 0
KTIS 250445Z 08007KT 01/M08 A302 RMK A01 T00131078  RH  050%=      5-min Rain = 0
KTIS 250450Z 08007KT 01/M08 A302 RMK A01 T00111080  RH  051%=      5-min Rain = 0
KTIS 250455Z 08008KT 01/M08 A302 RMK A01 T00101079  RH  051%=      5-min Rain = 0
KTIS 250500Z 08008KT 01/M08 A302 RMK A01 T00091080  RH  051%=      5-min Rain = 0
KTIS 250505Z 08008KT 01/M08 A302 RMK A01 T00091080  RH  051%=      5-min Rain = 0
KTIS 250510Z 08008KT 01/M08 A302 RMK A01 T00101081  RH  051%=      5-min Rain = 0
KTIS 250515Z 08008KT 01/M08 A302 RMK A01 T00101081  RH  051%=      5-min Rain = 0
KTIS 250520Z 08008KT 01/M08 A302 RMK A01 T00071081  RH  052%=      5-min Rain = 0
KTIS 250525Z 08008KT 00/M08 A302 RMK A01 T00021082  RH  053%=      5-min Rain = 0
KTIS 250530Z 08008KT M00/M08 A302 RMK A01 T10041083  RH  055%=      5-min Rain = 0
KTIS 250535Z 08008KT M00/M08 A302 RMK A01 T10031081  RH  055%=      5-min Rain = 0
KTIS 250540Z 08007KT 00/M08 A302 RMK A01 T00021081  RH  054%=      5-min Rain = 0
KTIS 250545Z 08007KT M00/M08 A302 RMK A01 T10011082  RH  054%=      5-min Rain = 0
KTIS 250550Z 08007KT M01/M08 A302 RMK A01 T10061083  RH  056%=      5-min Rain = 0
KTIS 250555Z 08007KT M01/M08 A302 RMK A01 T10101083  RH  058%=      5-min Rain = 0

Page generated in 0.0083 seconds.